sensor_id;sensor_type;location;lat;lon;timestamp;P1;durP1;ratioP1;P2;durP2;ratioP2
70558;SDS011;58108;48.094;11.838;2023-11-19T00:00:21;3.63;;;1.47;;
70558;SDS011;58108;48.094;11.838;2023-11-19T00:02:47;4.03;;;1.48;;
70558;SDS011;58108;48.094;11.838;2023-11-19T00:05:13;4.70;;;1.50;;
70558;SDS011;58108;48.094;11.838;2023-11-19T00:07:39;3.83;;;1.25;;
70558;SDS011;58108;48.094;11.838;2023-11-19T00:10:17;4.45;;;1.75;;
70558;SDS011;58108;48.094;11.838;2023-11-19T00:12:46;4.53;;;1.73;;
70558;SDS011;58108;48.094;11.838;2023-11-19T00:15:13;5.65;;;1.67;;
70558;SDS011;58108;48.094;11.838;2023-11-19T00:17:40;2.97;;;0.98;;
70558;SDS011;58108;48.094;11.838;2023-11-19T00:20:10;3.63;;;1.42;;
70558;SDS011;58108;48.094;11.838;2023-11-19T00:22:42;4.85;;;1.92;;
70558;SDS011;58108;48.094;11.838;2023-11-19T00:25:08;4.87;;;1.50;;
70558;SDS011;58108;48.094;11.838;2023-11-19T00:27:35;4.35;;;1.60;;
70558;SDS011;58108;48.094;11.838;2023-11-19T00:30:01;4.65;;;1.73;;
70558;SDS011;58108;48.094;11.838;2023-11-19T00:32:27;5.30;;;1.60;;
70558;SDS011;58108;48.094;11.838;2023-11-19T00:34:53;3.77;;;1.43;;
70558;SDS011;58108;48.094;11.838;2023-11-19T00:37:18;4.57;;;1.50;;
70558;SDS011;58108;48.094;11.838;2023-11-19T00:39:44;4.43;;;1.50;;
70558;SDS011;58108;48.094;11.838;2023-11-19T00:42:09;4.73;;;1.47;;
70558;SDS011;58108;48.094;11.838;2023-11-19T00:44:36;3.60;;;1.38;;
70558;SDS011;58108;48.094;11.838;2023-11-19T00:47:01;3.67;;;1.40;;
70558;SDS011;58108;48.094;11.838;2023-11-19T00:49:28;3.17;;;0.85;;
70558;SDS011;58108;48.094;11.838;2023-11-19T00:51:54;2.85;;;0.93;;
70558;SDS011;58108;48.094;11.838;2023-11-19T00:54:19;3.22;;;0.85;;
70558;SDS011;58108;48.094;11.838;2023-11-19T00:56:45;3.53;;;1.10;;
70558;SDS011;58108;48.094;11.838;2023-11-19T00:59:11;2.93;;;0.90;;
70558;SDS011;58108;48.094;11.838;2023-11-19T01:01:36;3.47;;;0.90;;
70558;SDS011;58108;48.094;11.838;2023-11-19T01:04:02;3.80;;;1.15;;
70558;SDS011;58108;48.094;11.838;2023-11-19T01:06:32;3.07;;;0.87;;
70558;SDS011;58108;48.094;11.838;2023-11-19T01:08:57;2.65;;;0.88;;
70558;SDS011;58108;48.094;11.838;2023-11-19T01:11:24;2.92;;;0.98;;
70558;SDS011;58108;48.094;11.838;2023-11-19T01:13:49;3.23;;;0.70;;
70558;SDS011;58108;48.094;11.838;2023-11-19T01:16:16;2.97;;;0.60;;
70558;SDS011;58108;48.094;11.838;2023-11-19T01:18:41;2.10;;;0.63;;
70558;SDS011;58108;48.094;11.838;2023-11-19T01:21:07;2.43;;;0.50;;
70558;SDS011;58108;48.094;11.838;2023-11-19T01:23:34;2.05;;;0.55;;
70558;SDS011;58108;48.094;11.838;2023-11-19T01:26:00;3.67;;;0.80;;
70558;SDS011;58108;48.094;11.838;2023-11-19T01:28:26;4.10;;;0.50;;
70558;SDS011;58108;48.094;11.838;2023-11-19T01:30:51;2.30;;;0.50;;
70558;SDS011;58108;48.094;11.838;2023-11-19T01:33:17;2.45;;;0.60;;
70558;SDS011;58108;48.094;11.838;2023-11-19T01:35:42;3.50;;;1.20;;
70558;SDS011;58108;48.094;11.838;2023-11-19T01:38:08;3.83;;;1.40;;
70558;SDS011;58108;48.094;11.838;2023-11-19T01:40:34;3.40;;;1.17;;
70558;SDS011;58108;48.094;11.838;2023-11-19T01:43:01;4.18;;;1.45;;
70558;SDS011;58108;48.094;11.838;2023-11-19T01:45:28;3.63;;;1.00;;
70558;SDS011;58108;48.094;11.838;2023-11-19T01:47:59;5.25;;;1.00;;
70558;SDS011;58108;48.094;11.838;2023-11-19T01:50:29;3.50;;;0.93;;
70558;SDS011;58108;48.094;11.838;2023-11-19T01:52:55;2.45;;;0.57;;
70558;SDS011;58108;48.094;11.838;2023-11-19T01:55:25;3.33;;;1.10;;
70558;SDS011;58108;48.094;11.838;2023-11-19T01:57:53;2.85;;;0.80;;
70558;SDS011;58108;48.094;11.838;2023-11-19T02:00:21;2.50;;;0.88;;
70558;SDS011;58108;48.094;11.838;2023-11-19T02:02:46;3.75;;;1.05;;
70558;SDS011;58108;48.094;11.838;2023-11-19T02:05:13;3.38;;;0.93;;
70558;SDS011;58108;48.094;11.838;2023-11-19T02:07:39;3.07;;;1.00;;
70558;SDS011;58108;48.094;11.838;2023-11-19T02:10:05;2.60;;;0.70;;
70558;SDS011;58108;48.094;11.838;2023-11-19T02:12:38;3.80;;;1.15;;
70558;SDS011;58108;48.094;11.838;2023-11-19T02:15:08;3.53;;;0.90;;
70558;SDS011;58108;48.094;11.838;2023-11-19T02:17:34;3.33;;;0.80;;
70558;SDS011;58108;48.094;11.838;2023-11-19T02:20:03;3.00;;;0.90;;
70558;SDS011;58108;48.094;11.838;2023-11-19T02:22:34;3.10;;;0.70;;
70558;SDS011;58108;48.094;11.838;2023-11-19T02:25:00;3.70;;;0.73;;
70558;SDS011;58108;48.094;11.838;2023-11-19T02:30:25;2.58;;;0.73;;
70558;SDS011;58108;48.094;11.838;2023-11-19T02:32:54;2.60;;;0.52;;
70558;SDS011;58108;48.094;11.838;2023-11-19T02:35:27;2.40;;;0.40;;
70558;SDS011;58108;48.094;11.838;2023-11-19T02:37:56;2.35;;;0.50;;
70558;SDS011;58108;48.094;11.838;2023-11-19T02:40:21;1.55;;;0.32;;
70558;SDS011;58108;48.094;11.838;2023-11-19T02:42:49;2.05;;;0.40;;
70558;SDS011;58108;48.094;11.838;2023-11-19T02:45:15;2.05;;;0.40;;
70558;SDS011;58108;48.094;11.838;2023-11-19T02:47:41;2.78;;;0.60;;
70558;SDS011;58108;48.094;11.838;2023-11-19T02:50:10;2.05;;;0.40;;
70558;SDS011;58108;48.094;11.838;2023-11-19T02:52:42;2.50;;;0.60;;
70558;SDS011;58108;48.094;11.838;2023-11-19T02:55:08;1.40;;;0.30;;
70558;SDS011;58108;48.094;11.838;2023-11-19T02:57:41;2.28;;;0.22;;
70558;SDS011;58108;48.094;11.838;2023-11-19T03:00:15;1.70;;;0.30;;
70558;SDS011;58108;48.094;11.838;2023-11-19T03:02:41;2.30;;;0.50;;
70558;SDS011;58108;48.094;11.838;2023-11-19T03:05:12;4.35;;;0.50;;
70558;SDS011;58108;48.094;11.838;2023-11-19T03:07:43;3.00;;;0.50;;
70558;SDS011;58108;48.094;11.838;2023-11-19T03:10:09;1.73;;;0.30;;
70558;SDS011;58108;48.094;11.838;2023-11-19T03:12:43;2.55;;;0.30;;
70558;SDS011;58108;48.094;11.838;2023-11-19T03:15:10;2.28;;;0.40;;
70558;SDS011;58108;48.094;11.838;2023-11-19T03:17:40;1.73;;;0.30;;
70558;SDS011;58108;48.094;11.838;2023-11-19T03:20:07;1.30;;;0.20;;
70558;SDS011;58108;48.094;11.838;2023-11-19T03:22:39;1.75;;;0.30;;
70558;SDS011;58108;48.094;11.838;2023-11-19T03:25:07;1.70;;;0.30;;
70558;SDS011;58108;48.094;11.838;2023-11-19T03:27:37;1.70;;;0.20;;
70558;SDS011;58108;48.094;11.838;2023-11-19T03:30:04;1.45;;;0.30;;
70558;SDS011;58108;48.094;11.838;2023-11-19T03:32:35;1.63;;;0.13;;
70558;SDS011;58108;48.094;11.838;2023-11-19T03:35:01;1.42;;;0.20;;
70558;SDS011;58108;48.094;11.838;2023-11-19T03:37:27;1.95;;;0.30;;
70558;SDS011;58108;48.094;11.838;2023-11-19T03:39:53;2.23;;;0.20;;
70558;SDS011;58108;48.094;11.838;2023-11-19T03:42:20;2.50;;;0.20;;
70558;SDS011;58108;48.094;11.838;2023-11-19T03:44:46;3.50;;;0.20;;
70558;SDS011;58108;48.094;11.838;2023-11-19T03:47:12;1.10;;;0.17;;
70558;SDS011;58108;48.094;11.838;2023-11-19T03:49:37;3.17;;;0.35;;
70558;SDS011;58108;48.094;11.838;2023-11-19T03:52:03;1.30;;;0.17;;
70558;SDS011;58108;48.094;11.838;2023-11-19T03:54:31;2.10;;;0.35;;
70558;SDS011;58108;48.094;11.838;2023-11-19T03:56:58;2.42;;;0.30;;
70558;SDS011;58108;48.094;11.838;2023-11-19T03:59:25;1.55;;;0.30;;
70558;SDS011;58108;48.094;11.838;2023-11-19T04:01:51;1.25;;;0.10;;
70558;SDS011;58108;48.094;11.838;2023-11-19T04:04:18;1.60;;;0.20;;
70558;SDS011;58108;48.094;11.838;2023-11-19T04:06:44;1.00;;;0.10;;
70558;SDS011;58108;48.094;11.838;2023-11-19T04:09:09;1.43;;;0.20;;
70558;SDS011;58108;48.094;11.838;2023-11-19T04:11:35;1.30;;;0.10;;
70558;SDS011;58108;48.094;11.838;2023-11-19T04:14:01;2.00;;;0.37;;
70558;SDS011;58108;48.094;11.838;2023-11-19T04:16:27;1.43;;;0.20;;
70558;SDS011;58108;48.094;11.838;2023-11-19T04:18:55;1.77;;;0.20;;
70558;SDS011;58108;48.094;11.838;2023-11-19T04:21:22;1.70;;;0.20;;
70558;SDS011;58108;48.094;11.838;2023-11-19T04:23:49;1.52;;;0.20;;
70558;SDS011;58108;48.094;11.838;2023-11-19T04:26:15;1.25;;;0.20;;
70558;SDS011;58108;48.094;11.838;2023-11-19T04:28:41;1.33;;;0.40;;
70558;SDS011;58108;48.094;11.838;2023-11-19T04:31:06;1.55;;;0.30;;
70558;SDS011;58108;48.094;11.838;2023-11-19T04:33:32;1.30;;;0.20;;
70558;SDS011;58108;48.094;11.838;2023-11-19T04:35:58;1.67;;;0.20;;
70558;SDS011;58108;48.094;11.838;2023-11-19T04:38:23;1.30;;;0.20;;
70558;SDS011;58108;48.094;11.838;2023-11-19T04:40:49;1.70;;;0.20;;
70558;SDS011;58108;48.094;11.838;2023-11-19T04:43:14;1.48;;;0.25;;
70558;SDS011;58108;48.094;11.838;2023-11-19T04:45:40;1.20;;;0.20;;
70558;SDS011;58108;48.094;11.838;2023-11-19T04:48:06;2.33;;;0.20;;
70558;SDS011;58108;48.094;11.838;2023-11-19T04:50:32;1.20;;;0.20;;
70558;SDS011;58108;48.094;11.838;2023-11-19T04:52:57;1.55;;;0.20;;
70558;SDS011;58108;48.094;11.838;2023-11-19T04:55:23;1.37;;;0.20;;
70558;SDS011;58108;48.094;11.838;2023-11-19T04:57:48;1.43;;;0.20;;
70558;SDS011;58108;48.094;11.838;2023-11-19T05:00:14;1.10;;;0.10;;
70558;SDS011;58108;48.094;11.838;2023-11-19T05:02:40;1.50;;;0.20;;
70558;SDS011;58108;48.094;11.838;2023-11-19T05:05:05;1.23;;;0.10;;
70558;SDS011;58108;48.094;11.838;2023-11-19T05:07:31;1.97;;;0.20;;
70558;SDS011;58108;48.094;11.838;2023-11-19T05:09:57;1.40;;;0.17;;
70558;SDS011;58108;48.094;11.838;2023-11-19T05:12:22;0.93;;;0.10;;
70558;SDS011;58108;48.094;11.838;2023-11-19T05:14:48;1.48;;;0.22;;
70558;SDS011;58108;48.094;11.838;2023-11-19T05:17:19;1.30;;;0.20;;
70558;SDS011;58108;48.094;11.838;2023-11-19T05:19:44;2.00;;;0.20;;
70558;SDS011;58108;48.094;11.838;2023-11-19T05:22:10;1.50;;;0.30;;
70558;SDS011;58108;48.094;11.838;2023-11-19T05:24:36;2.60;;;0.30;;
70558;SDS011;58108;48.094;11.838;2023-11-19T05:27:02;1.80;;;0.27;;
70558;SDS011;58108;48.094;11.838;2023-11-19T05:29:27;1.30;;;0.30;;
70558;SDS011;58108;48.094;11.838;2023-11-19T05:31:54;1.63;;;0.20;;
70558;SDS011;58108;48.094;11.838;2023-11-19T05:34:20;1.10;;;0.13;;
70558;SDS011;58108;48.094;11.838;2023-11-19T05:36:46;2.15;;;0.25;;
70558;SDS011;58108;48.094;11.838;2023-11-19T05:39:12;1.15;;;0.20;;
70558;SDS011;58108;48.094;11.838;2023-11-19T05:41:38;1.33;;;0.27;;
70558;SDS011;58108;48.094;11.838;2023-11-19T05:44:04;1.80;;;0.20;;
70558;SDS011;58108;48.094;11.838;2023-11-19T05:46:29;1.90;;;0.10;;
70558;SDS011;58108;48.094;11.838;2023-11-19T05:48:55;1.15;;;0.10;;
70558;SDS011;58108;48.094;11.838;2023-11-19T05:51:20;1.08;;;0.10;;
70558;SDS011;58108;48.094;11.838;2023-11-19T05:53:46;1.00;;;0.10;;
70558;SDS011;58108;48.094;11.838;2023-11-19T05:56:12;1.48;;;0.20;;
70558;SDS011;58108;48.094;11.838;2023-11-19T05:58:38;1.15;;;0.10;;
70558;SDS011;58108;48.094;11.838;2023-11-19T06:01:05;1.40;;;0.20;;
70558;SDS011;58108;48.094;11.838;2023-11-19T06:03:32;1.05;;;0.20;;
70558;SDS011;58108;48.094;11.838;2023-11-19T06:05:58;1.25;;;0.15;;
70558;SDS011;58108;48.094;11.838;2023-11-19T06:08:24;0.80;;;0.10;;
70558;SDS011;58108;48.094;11.838;2023-11-19T06:10:52;1.00;;;0.10;;
70558;SDS011;58108;48.094;11.838;2023-11-19T06:13:18;1.02;;;0.10;;
70558;SDS011;58108;48.094;11.838;2023-11-19T06:15:44;0.70;;;0.10;;
70558;SDS011;58108;48.094;11.838;2023-11-19T06:18:10;1.55;;;0.20;;
70558;SDS011;58108;48.094;11.838;2023-11-19T06:20:37;1.20;;;0.10;;
70558;SDS011;58108;48.094;11.838;2023-11-19T06:23:03;1.10;;;0.20;;
70558;SDS011;58108;48.094;11.838;2023-11-19T06:25:28;1.02;;;0.20;;
70558;SDS011;58108;48.094;11.838;2023-11-19T06:27:54;1.13;;;0.10;;
70558;SDS011;58108;48.094;11.838;2023-11-19T06:30:20;0.67;;;0.10;;
70558;SDS011;58108;48.094;11.838;2023-11-19T06:32:46;0.77;;;0.10;;
70558;SDS011;58108;48.094;11.838;2023-11-19T06:35:12;0.93;;;0.10;;
70558;SDS011;58108;48.094;11.838;2023-11-19T06:37:39;1.60;;;0.10;;
70558;SDS011;58108;48.094;11.838;2023-11-19T06:40:05;1.63;;;0.10;;
70558;SDS011;58108;48.094;11.838;2023-11-19T06:42:32;1.13;;;0.10;;
70558;SDS011;58108;48.094;11.838;2023-11-19T06:44:58;1.10;;;0.10;;
70558;SDS011;58108;48.094;11.838;2023-11-19T06:47:27;1.08;;;0.10;;
70558;SDS011;58108;48.094;11.838;2023-11-19T06:49:53;1.00;;;0.10;;
70558;SDS011;58108;48.094;11.838;2023-11-19T06:52:19;1.60;;;0.10;;
70558;SDS011;58108;48.094;11.838;2023-11-19T06:54:45;1.13;;;0.10;;
70558;SDS011;58108;48.094;11.838;2023-11-19T06:57:11;0.70;;;0.10;;
70558;SDS011;58108;48.094;11.838;2023-11-19T06:59:38;2.55;;;0.10;;
70558;SDS011;58108;48.094;11.838;2023-11-19T07:02:04;0.60;;;0.00;;
70558;SDS011;58108;48.094;11.838;2023-11-19T07:04:30;1.73;;;0.17;;
70558;SDS011;58108;48.094;11.838;2023-11-19T07:06:56;0.47;;;0.00;;
70558;SDS011;58108;48.094;11.838;2023-11-19T07:09:22;0.90;;;0.10;;
70558;SDS011;58108;48.094;11.838;2023-11-19T07:11:48;0.95;;;0.10;;
70558;SDS011;58108;48.094;11.838;2023-11-19T07:14:15;0.93;;;0.10;;
70558;SDS011;58108;48.094;11.838;2023-11-19T07:16:42;0.68;;;0.10;;
70558;SDS011;58108;48.094;11.838;2023-11-19T07:19:08;0.67;;;0.10;;
70558;SDS011;58108;48.094;11.838;2023-11-19T07:21:33;0.52;;;0.03;;
70558;SDS011;58108;48.094;11.838;2023-11-19T07:23:59;0.90;;;0.10;;
70558;SDS011;58108;48.094;11.838;2023-11-19T07:26:25;0.70;;;0.10;;
70558;SDS011;58108;48.094;11.838;2023-11-19T07:28:50;1.13;;;0.10;;
70558;SDS011;58108;48.094;11.838;2023-11-19T07:31:16;0.73;;;0.00;;
70558;SDS011;58108;48.094;11.838;2023-11-19T07:33:45;0.88;;;0.10;;
70558;SDS011;58108;48.094;11.838;2023-11-19T07:36:11;0.82;;;0.10;;
70558;SDS011;58108;48.094;11.838;2023-11-19T07:38:37;0.70;;;0.00;;
70558;SDS011;58108;48.094;11.838;2023-11-19T07:41:04;0.73;;;0.10;;
70558;SDS011;58108;48.094;11.838;2023-11-19T07:43:30;0.70;;;0.10;;
70558;SDS011;58108;48.094;11.838;2023-11-19T07:45:56;0.93;;;0.10;;
70558;SDS011;58108;48.094;11.838;2023-11-19T07:48:24;0.88;;;0.03;;
70558;SDS011;58108;48.094;11.838;2023-11-19T07:50:51;0.60;;;0.03;;
70558;SDS011;58108;48.094;11.838;2023-11-19T07:53:18;0.98;;;0.10;;
70558;SDS011;58108;48.094;11.838;2023-11-19T07:55:44;1.00;;;0.00;;
70558;SDS011;58108;48.094;11.838;2023-11-19T07:58:10;0.70;;;0.10;;
70558;SDS011;58108;48.094;11.838;2023-11-19T08:00:36;0.60;;;0.00;;
70558;SDS011;58108;48.094;11.838;2023-11-19T08:03:03;1.50;;;0.00;;
70558;SDS011;58108;48.094;11.838;2023-11-19T08:05:29;0.80;;;0.10;;
70558;SDS011;58108;48.094;11.838;2023-11-19T08:07:56;0.70;;;0.10;;
70558;SDS011;58108;48.094;11.838;2023-11-19T08:10:22;1.95;;;0.10;;
70558;SDS011;58108;48.094;11.838;2023-11-19T08:12:48;2.03;;;0.10;;
70558;SDS011;58108;48.094;11.838;2023-11-19T08:15:14;1.67;;;0.20;;
70558;SDS011;58108;48.094;11.838;2023-11-19T08:17:41;1.73;;;0.10;;
70558;SDS011;58108;48.094;11.838;2023-11-19T08:20:08;0.82;;;0.10;;
70558;SDS011;58108;48.094;11.838;2023-11-19T08:22:37;0.90;;;0.10;;
70558;SDS011;58108;48.094;11.838;2023-11-19T08:25:04;0.70;;;0.00;;
70558;SDS011;58108;48.094;11.838;2023-11-19T08:27:33;0.80;;;0.10;;
70558;SDS011;58108;48.094;11.838;2023-11-19T08:29:59;1.55;;;0.20;;
70558;SDS011;58108;48.094;11.838;2023-11-19T08:32:25;0.50;;;0.10;;
70558;SDS011;58108;48.094;11.838;2023-11-19T08:34:51;1.00;;;0.10;;
70558;SDS011;58108;48.094;11.838;2023-11-19T08:37:16;0.85;;;0.10;;
70558;SDS011;58108;48.094;11.838;2023-11-19T08:39:46;1.00;;;0.10;;
70558;SDS011;58108;48.094;11.838;2023-11-19T08:42:12;1.52;;;0.10;;
70558;SDS011;58108;48.094;11.838;2023-11-19T08:44:38;1.00;;;0.10;;
70558;SDS011;58108;48.094;11.838;2023-11-19T08:47:04;1.83;;;0.47;;
70558;SDS011;58108;48.094;11.838;2023-11-19T08:49:29;0.68;;;0.10;;
70558;SDS011;58108;48.094;11.838;2023-11-19T08:51:55;0.60;;;0.10;;
70558;SDS011;58108;48.094;11.838;2023-11-19T08:54:21;0.70;;;0.10;;
70558;SDS011;58108;48.094;11.838;2023-11-19T08:56:48;1.10;;;0.10;;
70558;SDS011;58108;48.094;11.838;2023-11-19T08:59:13;0.90;;;0.10;;
70558;SDS011;58108;48.094;11.838;2023-11-19T09:01:40;1.00;;;0.30;;
70558;SDS011;58108;48.094;11.838;2023-11-19T09:04:06;0.73;;;0.00;;
70558;SDS011;58108;48.094;11.838;2023-11-19T09:06:32;1.33;;;0.20;;
70558;SDS011;58108;48.094;11.838;2023-11-19T09:08:57;1.20;;;0.20;;
70558;SDS011;58108;48.094;11.838;2023-11-19T09:11:27;1.15;;;0.20;;
70558;SDS011;58108;48.094;11.838;2023-11-19T09:13:52;1.10;;;0.10;;
70558;SDS011;58108;48.094;11.838;2023-11-19T09:16:18;0.67;;;0.20;;
70558;SDS011;58108;48.094;11.838;2023-11-19T09:18:44;1.02;;;0.10;;
70558;SDS011;58108;48.094;11.838;2023-11-19T09:21:12;1.23;;;0.10;;
70558;SDS011;58108;48.094;11.838;2023-11-19T09:23:38;2.05;;;0.20;;
70558;SDS011;58108;48.094;11.838;2023-11-19T09:26:05;1.10;;;0.10;;
70558;SDS011;58108;48.094;11.838;2023-11-19T09:28:31;1.05;;;0.10;;
70558;SDS011;58108;48.094;11.838;2023-11-19T09:30:57;1.00;;;0.10;;
70558;SDS011;58108;48.094;11.838;2023-11-19T09:33:24;1.30;;;0.10;;
70558;SDS011;58108;48.094;11.838;2023-11-19T09:35:49;1.17;;;0.28;;
70558;SDS011;58108;48.094;11.838;2023-11-19T09:38:16;1.13;;;0.20;;
70558;SDS011;58108;48.094;11.838;2023-11-19T09:40:42;0.85;;;0.10;;
70558;SDS011;58108;48.094;11.838;2023-11-19T09:43:07;1.13;;;0.20;;
70558;SDS011;58108;48.094;11.838;2023-11-19T09:45:38;1.10;;;0.10;;
70558;SDS011;58108;48.094;11.838;2023-11-19T09:48:13;1.15;;;0.20;;
70558;SDS011;58108;48.094;11.838;2023-11-19T09:50:42;0.95;;;0.20;;
70558;SDS011;58108;48.094;11.838;2023-11-19T09:53:07;1.00;;;0.10;;
70558;SDS011;58108;48.094;11.838;2023-11-19T09:55:33;1.27;;;0.20;;
70558;SDS011;58108;48.094;11.838;2023-11-19T09:57:59;0.97;;;0.10;;
70558;SDS011;58108;48.094;11.838;2023-11-19T10:00:26;1.10;;;0.20;;
70558;SDS011;58108;48.094;11.838;2023-11-19T10:02:52;1.38;;;0.30;;
70558;SDS011;58108;48.094;11.838;2023-11-19T10:05:20;1.02;;;0.15;;
70558;SDS011;58108;48.094;11.838;2023-11-19T10:07:49;1.20;;;0.20;;
70558;SDS011;58108;48.094;11.838;2023-11-19T10:10:14;1.00;;;0.10;;
70558;SDS011;58108;48.094;11.838;2023-11-19T10:12:44;1.52;;;0.20;;
70558;SDS011;58108;48.094;11.838;2023-11-19T10:15:23;1.70;;;0.13;;
70558;SDS011;58108;48.094;11.838;2023-11-19T10:17:55;0.80;;;0.10;;
70558;SDS011;58108;48.094;11.838;2023-11-19T10:20:22;1.30;;;0.20;;
70558;SDS011;58108;48.094;11.838;2023-11-19T10:22:47;0.90;;;0.10;;
70558;SDS011;58108;48.094;11.838;2023-11-19T10:25:23;1.33;;;0.10;;
70558;SDS011;58108;48.094;11.838;2023-11-19T10:27:52;1.10;;;0.10;;
70558;SDS011;58108;48.094;11.838;2023-11-19T10:30:22;1.20;;;0.30;;
70558;SDS011;58108;48.094;11.838;2023-11-19T10:35:33;2.35;;;0.20;;
70558;SDS011;58108;48.094;11.838;2023-11-19T10:38:00;1.58;;;0.20;;
70558;SDS011;58108;48.094;11.838;2023-11-19T10:40:39;1.45;;;0.20;;
70558;SDS011;58108;48.094;11.838;2023-11-19T10:43:08;0.90;;;0.10;;
70558;SDS011;58108;48.094;11.838;2023-11-19T10:45:34;1.00;;;0.10;;
70558;SDS011;58108;48.094;11.838;2023-11-19T10:48:01;1.00;;;0.10;;
70558;SDS011;58108;48.094;11.838;2023-11-19T10:50:29;0.75;;;0.10;;
70558;SDS011;58108;48.094;11.838;2023-11-19T10:52:56;1.15;;;0.10;;
70558;SDS011;58108;48.094;11.838;2023-11-19T10:55:32;1.15;;;0.10;;
70558;SDS011;58108;48.094;11.838;2023-11-19T10:58:03;1.00;;;0.10;;
70558;SDS011;58108;48.094;11.838;2023-11-19T11:03:16;1.15;;;0.10;;
70558;SDS011;58108;48.094;11.838;2023-11-19T11:05:43;1.10;;;0.10;;
70558;SDS011;58108;48.094;11.838;2023-11-19T11:08:13;1.48;;;0.20;;
70558;SDS011;58108;48.094;11.838;2023-11-19T11:10:45;0.77;;;0.10;;
70558;SDS011;58108;48.094;11.838;2023-11-19T11:13:17;1.08;;;0.15;;
70558;SDS011;58108;48.094;11.838;2023-11-19T11:15:44;0.93;;;0.10;;
70558;SDS011;58108;48.094;11.838;2023-11-19T11:18:12;1.02;;;0.20;;
70558;SDS011;58108;48.094;11.838;2023-11-19T11:20:38;0.60;;;0.05;;
70558;SDS011;58108;48.094;11.838;2023-11-19T11:28:33;1.17;;;0.10;;
70558;SDS011;58108;48.094;11.838;2023-11-19T11:33:41;1.00;;;0.20;;
70558;SDS011;58108;48.094;11.838;2023-11-19T11:36:24;0.90;;;0.10;;
70558;SDS011;58108;48.094;11.838;2023-11-19T11:38:51;1.20;;;0.10;;
70558;SDS011;58108;48.094;11.838;2023-11-19T11:41:19;1.95;;;0.13;;
70558;SDS011;58108;48.094;11.838;2023-11-19T11:43:46;1.00;;;0.20;;
70558;SDS011;58108;48.094;11.838;2023-11-19T11:49:01;1.02;;;0.10;;
70558;SDS011;58108;48.094;11.838;2023-11-19T11:54:09;0.88;;;0.10;;
70558;SDS011;58108;48.094;11.838;2023-11-19T11:56:39;1.40;;;0.20;;
70558;SDS011;58108;48.094;11.838;2023-11-19T11:59:08;1.02;;;0.13;;
70558;SDS011;58108;48.094;11.838;2023-11-19T12:01:57;0.82;;;0.10;;
70558;SDS011;58108;48.094;11.838;2023-11-19T12:04:26;0.80;;;0.10;;
70558;SDS011;58108;48.094;11.838;2023-11-19T12:07:05;1.38;;;0.30;;
70558;SDS011;58108;48.094;11.838;2023-11-19T12:09:32;1.38;;;0.15;;
70558;SDS011;58108;48.094;11.838;2023-11-19T12:20:01;1.25;;;0.10;;
70558;SDS011;58108;48.094;11.838;2023-11-19T12:22:40;0.80;;;0.10;;
70558;SDS011;58108;48.094;11.838;2023-11-19T12:25:07;0.63;;;0.10;;
70558;SDS011;58108;48.094;11.838;2023-11-19T12:27:35;1.77;;;0.10;;
70558;SDS011;58108;48.094;11.838;2023-11-19T12:30:01;0.90;;;0.15;;
70558;SDS011;58108;48.094;11.838;2023-11-19T12:32:39;0.70;;;0.03;;
70558;SDS011;58108;48.094;11.838;2023-11-19T12:35:09;0.80;;;0.10;;
70558;SDS011;58108;48.094;11.838;2023-11-19T12:37:39;0.90;;;0.10;;
70558;SDS011;58108;48.094;11.838;2023-11-19T12:42:42;1.48;;;0.10;;
70558;SDS011;58108;48.094;11.838;2023-11-19T12:45:11;0.70;;;0.10;;
70558;SDS011;58108;48.094;11.838;2023-11-19T12:47:38;0.60;;;0.10;;
70558;SDS011;58108;48.094;11.838;2023-11-19T12:50:05;2.20;;;0.10;;
70558;SDS011;58108;48.094;11.838;2023-11-19T12:52:32;1.00;;;0.13;;
70558;SDS011;58108;48.094;11.838;2023-11-19T12:54:58;0.93;;;0.10;;
70558;SDS011;58108;48.094;11.838;2023-11-19T12:57:40;0.80;;;0.10;;
70558;SDS011;58108;48.094;11.838;2023-11-19T13:00:07;0.90;;;0.10;;
70558;SDS011;58108;48.094;11.838;2023-11-19T13:02:47;0.73;;;0.10;;
70558;SDS011;58108;48.094;11.838;2023-11-19T13:05:23;1.33;;;0.20;;
70558;SDS011;58108;48.094;11.838;2023-11-19T13:10:25;1.00;;;0.10;;
70558;SDS011;58108;48.094;11.838;2023-11-19T13:13:08;1.80;;;0.20;;
70558;SDS011;58108;48.094;11.838;2023-11-19T13:15:34;0.70;;;0.10;;
70558;SDS011;58108;48.094;11.838;2023-11-19T13:18:00;0.80;;;0.10;;
70558;SDS011;58108;48.094;11.838;2023-11-19T13:20:28;1.38;;;0.20;;
70558;SDS011;58108;48.094;11.838;2023-11-19T13:23:01;1.30;;;0.10;;
70558;SDS011;58108;48.094;11.838;2023-11-19T13:25:28;0.80;;;0.10;;
70558;SDS011;58108;48.094;11.838;2023-11-19T13:27:55;1.10;;;0.10;;
70558;SDS011;58108;48.094;11.838;2023-11-19T13:30:23;1.27;;;0.10;;
70558;SDS011;58108;48.094;11.838;2023-11-19T13:32:50;1.45;;;0.30;;
70558;SDS011;58108;48.094;11.838;2023-11-19T13:35:16;0.98;;;0.20;;
70558;SDS011;58108;48.094;11.838;2023-11-19T13:37:42;1.35;;;0.20;;
70558;SDS011;58108;48.094;11.838;2023-11-19T13:40:08;1.35;;;0.10;;
70558;SDS011;58108;48.094;11.838;2023-11-19T13:42:38;0.75;;;0.15;;
70558;SDS011;58108;48.094;11.838;2023-11-19T13:45:11;0.93;;;0.10;;
70558;SDS011;58108;48.094;11.838;2023-11-19T13:47:44;0.93;;;0.20;;
70558;SDS011;58108;48.094;11.838;2023-11-19T13:50:12;1.77;;;0.30;;
70558;SDS011;58108;48.094;11.838;2023-11-19T13:52:40;2.28;;;0.30;;
70558;SDS011;58108;48.094;11.838;2023-11-19T13:55:08;0.90;;;0.20;;
70558;SDS011;58108;48.094;11.838;2023-11-19T13:57:34;0.90;;;0.20;;
70558;SDS011;58108;48.094;11.838;2023-11-19T14:00:01;1.00;;;0.10;;
70558;SDS011;58108;48.094;11.838;2023-11-19T14:02:34;0.90;;;0.10;;
70558;SDS011;58108;48.094;11.838;2023-11-19T14:04:59;0.80;;;0.10;;
70558;SDS011;58108;48.094;11.838;2023-11-19T14:07:25;1.60;;;0.20;;
70558;SDS011;58108;48.094;11.838;2023-11-19T14:09:51;0.85;;;0.10;;
70558;SDS011;58108;48.094;11.838;2023-11-19T14:12:17;1.27;;;0.20;;
70558;SDS011;58108;48.094;11.838;2023-11-19T14:14:43;1.20;;;0.20;;
70558;SDS011;58108;48.094;11.838;2023-11-19T14:17:09;1.50;;;0.20;;
70558;SDS011;58108;48.094;11.838;2023-11-19T14:19:36;0.90;;;0.20;;
70558;SDS011;58108;48.094;11.838;2023-11-19T14:22:02;0.90;;;0.13;;
70558;SDS011;58108;48.094;11.838;2023-11-19T14:24:27;1.30;;;0.20;;
70558;SDS011;58108;48.094;11.838;2023-11-19T14:26:53;1.70;;;0.32;;
70558;SDS011;58108;48.094;11.838;2023-11-19T14:29:19;1.53;;;0.30;;
70558;SDS011;58108;48.094;11.838;2023-11-19T14:31:44;1.80;;;0.20;;
70558;SDS011;58108;48.094;11.838;2023-11-19T14:34:10;1.47;;;0.30;;
70558;SDS011;58108;48.094;11.838;2023-11-19T14:36:35;2.00;;;0.30;;
70558;SDS011;58108;48.094;11.838;2023-11-19T14:39:01;1.07;;;0.20;;
70558;SDS011;58108;48.094;11.838;2023-11-19T14:41:26;1.80;;;0.20;;
70558;SDS011;58108;48.094;11.838;2023-11-19T14:43:52;1.20;;;0.17;;
70558;SDS011;58108;48.094;11.838;2023-11-19T14:46:17;2.27;;;0.27;;
70558;SDS011;58108;48.094;11.838;2023-11-19T14:48:43;1.35;;;0.20;;
70558;SDS011;58108;48.094;11.838;2023-11-19T14:51:09;1.13;;;0.20;;
70558;SDS011;58108;48.094;11.838;2023-11-19T14:53:35;1.83;;;0.20;;
70558;SDS011;58108;48.094;11.838;2023-11-19T14:56:01;1.13;;;0.20;;
70558;SDS011;58108;48.094;11.838;2023-11-19T14:58:27;1.30;;;0.20;;
70558;SDS011;58108;48.094;11.838;2023-11-19T15:00:53;2.88;;;0.30;;
70558;SDS011;58108;48.094;11.838;2023-11-19T15:03:18;1.03;;;0.10;;
70558;SDS011;58108;48.094;11.838;2023-11-19T15:05:47;1.20;;;0.20;;
70558;SDS011;58108;48.094;11.838;2023-11-19T15:08:13;1.40;;;0.23;;